メインページ
METAR-TAF:

METAR-TAF

空港 :

重慶江北国際空港

重慶, 中華人民共和国

緯度: 29-31N, 経度: 106-29E, 海抜: 351m

現時点の気象観測

当レポートは24分前の14:00(UTC)に作成
南東の風 6kt
気温 35°C
湿度 42%
気圧 1001 hPa
視程10km以上
1,500メートル以下は雲なし、積乱雲なし

METAR: ZUCK 201400Z 13003MPS CAVOK 35/20 Q1001 NOSIG

時間: 22:24 (14:24 UTC)

予報

当レポートは5時間21分前の09:03(UTC)に作成
予報は20日の 12時(UTC)から 21日の 12時(UTC)まで有効
南東の風 8kt
視程: 6000m
高度4000ftの雲は散在している

TAF: ZUCK 200903Z 2012/2112 13004MPS 6000 SCT040 TX41/2107Z TN31/2022Z

4,000以上の空港の気象観測と天気予報(METAR報とTAF報)

利用可能な観測所は地図上に黄色い丸と赤い丸で示す。

丸の上にカーソルを重ねると観測所名を参照できる。

次にクリックすると気象観測と天気予報を参照できる。

マップの切り替え:黒色「×」印の緑ボタンをクリックして拡大、「-」印の緑ボタンをクリックして縮小、緑色の三角印をクリックして隣りの地図に切り替え


METAR-TAF: